Time;durP1;ratioP1;P1;durP2;ratioP2;P2;SDS_P1;SDS_P2;PMS_P1;PMS_P2;Temp;Humidity;BMP_temperature;BMP_pressure;BME280_temperature;BME280_humidity;BME280_pressure;Samples;Min_cycle;Max_cycle;Signal;HPM_P1;HPM_P2
2023/05/08 00:00:40;;;;;;;1.90;0.82;;;33.00;25.90;;;;;;5067336;28;20017;-65
2023/05/08 00:03:07;;;;;;;2.60;0.75;;;32.80;26.30;;;;;;5064510;28;20097;-65
2023/05/08 00:05:33;;;;;;;2.42;0.90;;;33.00;26.10;;;;;;5065983;28;20039;-63
2023/05/08 00:08:00;;;;;;;2.13;0.75;;;33.00;26.30;;;;;;5063207;28;20036;-62
2023/05/08 00:10:27;;;;;;;2.90;1.00;;;32.90;26.20;;;;;;5067168;28;20471;-61
2023/05/08 00:12:54;;;;;;;5.88;0.80;;;32.80;26.50;;;;;;5063695;28;20090;-64
2023/05/08 00:15:21;;;;;;;2.80;0.88;;;32.80;26.50;;;;;;5066545;28;20906;-61
2023/05/08 00:17:48;;;;;;;6.18;1.15;;;32.70;26.00;;;;;;5066777;28;20055;-61
2023/05/08 00:20:14;;;;;;;3.95;0.70;;;32.80;26.20;;;;;;5066254;28;20024;-62
2023/05/08 00:22:41;;;;;;;9.88;1.08;;;32.80;26.10;;;;;;5065642;28;20032;-60
2023/05/08 00:25:07;;;;;;;4.30;0.77;;;32.80;25.90;;;;;;5067704;28;20028;-60
2023/05/08 00:27:34;;;;;;;5.22;0.90;;;32.70;25.40;;;;;;5069563;28;20381;-62
2023/05/08 00:30:00;;;;;;;2.72;0.95;;;32.60;25.50;;;;;;5031274;28;20025;-63
2023/05/08 00:32:27;;;;;;;1.30;0.85;;;32.50;25.70;;;;;;5048312;28;20123;-62
2023/05/08 00:34:54;;;;;;;5.40;1.10;;;32.40;25.70;;;;;;5063466;28;20484;-64
2023/05/08 00:37:20;;;;;;;4.07;1.02;;;32.40;26.80;;;;;;5063230;28;20032;-61
2023/05/08 00:39:46;;;;;;;3.33;0.93;;;32.30;26.50;;;;;;5049310;28;20099;-57
2023/05/08 00:42:13;;;;;;;5.30;1.02;;;32.10;26.80;;;;;;5062624;28;20368;-60
2023/05/08 00:44:40;;;;;;;1.25;0.73;;;32.00;26.70;;;;;;5067255;28;20704;-63
2023/05/08 00:47:07;;;;;;;2.80;0.82;;;31.90;26.70;;;;;;5062404;28;20086;-62
2023/05/08 00:49:34;;;;;;;4.68;1.25;;;31.80;27.10;;;;;;5061385;28;20050;-61
2023/05/08 00:52:03;;;;;;;2.40;0.90;;;31.70;27.30;;;;;;5049976;28;20065;-62
2023/05/08 00:54:30;;;;;;;5.57;1.00;;;31.70;27.10;;;;;;5047187;28;20032;-64
2023/05/08 00:56:57;;;;;;;1.73;0.80;;;31.60;27.20;;;;;;5066829;28;20090;-67
2023/05/08 00:59:24;;;;;;;2.67;0.90;;;31.50;27.20;;;;;;5069034;28;20060;-63
2023/05/08 01:01:52;;;;;;;2.97;0.82;;;31.40;27.20;;;;;;5064132;28;20045;-59
2023/05/08 01:04:23;;;;;;;5.72;0.95;;;31.20;27.40;;;;;;5060707;28;20082;-59
2023/05/08 01:06:50;;;;;;;2.67;1.10;;;31.10;27.30;;;;;;5068106;28;20046;-57
2023/05/08 01:09:16;;;;;;;3.85;1.70;;;31.10;27.20;;;;;;5059948;28;20123;-53
2023/05/08 01:12:23;;;;;;;9.10;1.20;;;31.00;27.20;;;;;;5066016;28;20056;-60
2023/05/08 01:15:07;;;;;;;5.72;1.58;;;30.90;27.60;;;;;;5066692;28;20043;-60
2023/05/08 01:17:37;;;;;;;5.70;0.95;;;30.90;27.40;;;;;;5070455;28;20077;-65
2023/05/08 01:20:26;;;;;;;3.65;0.85;;;30.80;27.60;;;;;;5064145;28;20069;-65
2023/05/08 01:22:58;;;;;;;4.45;1.40;;;30.80;27.40;;;;;;5066413;28;20038;-64
2023/05/08 01:25:43;;;;;;;4.05;1.20;;;30.70;27.40;;;;;;5067569;28;20072;-65
2023/05/08 01:28:12;;;;;;;2.65;0.90;;;30.60;27.40;;;;;;5070425;28;20119;-65
2023/05/08 01:30:47;;;;;;;4.40;0.95;;;30.60;27.70;;;;;;5064111;28;20044;-65
2023/05/08 01:33:26;;;;;;;3.80;1.10;;;30.70;28.10;;;;;;5067399;28;20073;-67
2023/05/08 01:36:15;;;;;;;2.50;1.30;;;30.90;27.60;;;;;;5064782;28;20442;-66
2023/05/08 01:39:08;;;;;;;7.78;1.10;;;31.40;27.40;;;;;;5030236;28;20100;-66
2023/05/08 01:41:37;;;;;;;6.30;1.20;;;31.40;27.40;;;;;;5069668;28;20031;-67
2023/05/08 01:44:17;;;;;;;5.72;1.38;;;31.00;28.00;;;;;;5067226;28;20043;-66
2023/05/08 01:46:50;;;;;;;4.35;1.20;;;30.90;28.50;;;;;;5070735;28;20555;-68
2023/05/08 01:49:25;;;;;;;5.50;1.10;;;31.30;28.10;;;;;;5067478;28;20032;-69
2023/05/08 01:52:08;;;;;;;5.50;1.40;;;32.00;27.60;;;;;;5067741;28;20481;-69
2023/05/08 01:54:47;;;;;;;6.97;1.60;;;32.30;27.60;;;;;;5048935;28;20446;-68
2023/05/08 01:57:16;;;;;;;7.95;1.88;;;31.60;28.20;;;;;;5067529;28;20080;-69
2023/05/08 01:59:44;;;;;;;10.65;2.10;;;30.80;29.00;;;;;;5068722;28;20394;-64
2023/05/08 02:02:12;;;;;;;9.48;2.10;;;30.40;29.60;;;;;;5067610;28;20042;-68
2023/05/08 02:04:42;;;;;;;9.63;1.60;;;29.90;29.80;;;;;;5064118;28;21020;-66
2023/05/08 02:07:09;;;;;;;5.38;1.50;;;29.70;30.80;;;;;;5069467;28;20052;-65
2023/05/08 02:09:37;;;;;;;8.25;1.80;;;29.50;30.80;;;;;;5070700;28;20071;-65
2023/05/08 02:12:05;;;;;;;7.53;1.48;;;29.30;31.40;;;;;;5069115;28;20049;-65
2023/05/08 02:14:32;;;;;;;12.13;1.83;;;29.20;32.20;;;;;;5069371;28;20594;-70
2023/05/08 02:17:01;;;;;;;11.85;2.38;;;29.00;32.40;;;;;;5069224;28;20107;-65
2023/05/08 02:19:29;;;;;;;13.13;5.40;;;28.90;32.70;;;;;;5069049;28;20122;-65
2023/05/08 02:21:58;;;;;;;15.15;2.25;;;28.80;33.10;;;;;;5066614;28;20602;-65
2023/05/08 02:24:25;;;;;;;14.55;1.98;;;28.70;34.10;;;;;;5066705;28;20069;-67
2023/05/08 02:26:53;;;;;;;13.68;2.45;;;28.60;33.70;;;;;;5067791;28;20071;-67
2023/05/08 02:29:21;;;;;;;9.25;1.98;;;28.50;33.80;;;;;;5065611;28;20043;-66
2023/05/08 02:31:49;;;;;;;14.98;2.70;;;28.40;34.00;;;;;;5065142;28;20242;-68
2023/05/08 02:34:16;;;;;;;6.43;2.10;;;28.30;34.40;;;;;;5069974;28;20088;-67
2023/05/08 02:36:43;;;;;;;11.48;2.45;;;28.10;34.50;;;;;;5069687;28;20126;-67
2023/05/08 02:39:12;;;;;;;10.35;2.40;;;28.00;34.70;;;;;;5069215;28;20090;-65
2023/05/08 02:41:41;;;;;;;11.60;2.17;;;27.90;34.70;;;;;;5068233;28;20054;-66
2023/05/08 02:44:08;;;;;;;11.50;2.15;;;27.80;34.70;;;;;;5068166;28;20105;-71
2023/05/08 02:46:57;;;;;;;4.65;2.15;;;27.70;34.50;;;;;;5039606;28;20048;-72
2023/05/08 02:49:44;;;;;;;11.43;2.03;;;27.60;34.60;;;;;;5067041;28;20141;-70
2023/05/08 02:52:17;;;;;;;17.30;2.50;;;27.60;34.50;;;;;;5041311;28;20060;-68
2023/05/08 02:55:24;;;;;;;9.30;2.28;;;27.50;34.70;;;;;;5046620;28;20112;-68
2023/05/08 02:58:18;;;;;;;12.40;2.28;;;27.40;35.00;;;;;;5047167;28;20159;-65
2023/05/08 03:00:52;;;;;;;12.32;3.15;;;27.40;35.30;;;;;;5061923;28;20102;-65
2023/05/08 03:03:31;;;;;;;11.75;2.63;;;27.30;35.40;;;;;;5067780;28;20104;-66
2023/05/08 03:06:01;;;;;;;11.25;2.55;;;27.20;35.30;;;;;;5068578;28;20157;-67
2023/05/08 03:08:34;;;;;;;11.23;2.55;;;27.10;35.60;;;;;;5068428;28;20060;-68
2023/05/08 03:11:11;;;;;;;12.93;4.40;;;27.00;35.80;;;;;;5066820;28;20077;-69
2023/05/08 03:13:40;;;;;;;13.77;3.92;;;27.00;36.20;;;;;;5069493;28;20050;-69
2023/05/08 03:16:20;;;;;;;9.40;3.42;;;26.90;36.50;;;;;;5066498;28;20138;-69
2023/05/08 03:19:03;;;;;;;13.18;3.67;;;26.80;36.50;;;;;;5068603;28;20044;-69
2023/05/08 03:21:31;;;;;;;11.77;4.78;;;26.60;36.80;;;;;;5068079;28;20071;-69
2023/05/08 03:24:00;;;;;;;13.82;4.60;;;26.50;37.00;;;;;;5070295;28;20057;-70
2023/05/08 03:26:27;;;;;;;13.50;4.72;;;26.40;37.00;;;;;;5072019;28;20063;-70
2023/05/08 03:28:55;;;;;;;10.23;5.97;;;26.30;37.00;;;;;;5071610;28;20165;-69
2023/05/08 03:31:23;;;;;;;7.63;3.33;;;26.30;37.50;;;;;;5069444;28;20061;-70
2023/05/08 03:33:54;;;;;;;10.63;3.35;;;26.20;37.70;;;;;;5069890;28;20183;-69
2023/05/08 03:36:21;;;;;;;10.98;3.88;;;26.10;37.90;;;;;;5072285;28;20463;-69
2023/05/08 03:38:48;;;;;;;16.05;4.32;;;26.10;38.00;;;;;;5041381;28;20111;-69
2023/05/08 03:41:15;;;;;;;12.23;4.97;;;25.90;38.30;;;;;;5073203;28;20113;-69
2023/05/08 03:43:42;;;;;;;10.73;2.83;;;25.80;38.40;;;;;;5071804;28;20076;-69
2023/05/08 03:46:09;;;;;;;14.15;2.28;;;25.80;38.30;;;;;;5067827;28;20060;-69
2023/05/08 03:48:37;;;;;;;11.68;2.33;;;25.70;38.50;;;;;;5072200;28;20063;-70
2023/05/08 03:51:04;;;;;;;17.65;2.95;;;25.70;38.60;;;;;;5068094;28;20442;-69
2023/05/08 03:53:32;;;;;;;11.95;2.42;;;25.60;38.50;;;;;;5072054;28;20057;-69
2023/05/08 03:55:59;;;;;;;12.93;2.42;;;25.60;38.30;;;;;;5069819;28;20089;-68
2023/05/08 03:59:08;;;;;;;10.63;1.90;;;25.60;38.30;;;;;;5070962;28;20547;-67
2023/05/08 04:01:53;;;;;;;12.60;2.70;;;25.60;38.20;;;;;;5072365;28;20120;-67
2023/05/08 04:04:39;;;;;;;10.75;1.95;;;25.50;38.10;;;;;;5071711;28;20554;-68
2023/05/08 04:07:09;;;;;;;12.35;2.72;;;25.50;38.00;;;;;;5070791;28;20079;-68
2023/05/08 04:09:44;;;;;;;20.50;3.70;;;25.50;37.90;;;;;;5071559;28;20061;-68
2023/05/08 04:12:54;;;;;;;10.90;3.33;;;25.40;38.10;;;;;;5072371;28;20085;-66
2023/05/08 04:15:33;;;;;;;12.80;2.30;;;25.40;37.90;;;;;;5070208;28;20059;-66
2023/05/08 04:18:07;;;;;;;6.85;1.88;;;25.30;38.50;;;;;;5071433;28;20073;-66
2023/05/08 04:20:34;;;;;;;8.15;1.83;;;25.40;38.00;;;;;;5070694;28;20092;-66
2023/05/08 04:23:02;;;;;;;12.05;2.08;;;25.30;38.50;;;;;;5044439;28;20062;-67
2023/05/08 04:25:32;;;;;;;5.72;1.70;;;25.20;38.10;;;;;;5072211;28;20432;-66
2023/05/08 04:28:01;;;;;;;7.18;1.63;;;25.20;38.40;;;;;;5069844;28;20633;-67
2023/05/08 04:30:28;;;;;;;7.57;1.73;;;25.20;38.70;;;;;;5070873;28;20548;-68
2023/05/08 04:32:58;;;;;;;8.57;1.80;;;25.20;38.70;;;;;;5064872;28;20125;-65
2023/05/08 04:35:24;;;;;;;12.13;1.63;;;25.10;38.40;;;;;;5069200;28;20081;-67
2023/05/08 04:37:51;;;;;;;8.80;1.45;;;25.10;38.80;;;;;;5071458;28;20088;-66
2023/05/08 04:40:18;;;;;;;8.15;1.58;;;25.10;39.10;;;;;;5070479;28;20108;-68
2023/05/08 04:42:46;;;;;;;6.65;1.80;;;25.00;39.00;;;;;;5070700;28;20062;-67
2023/05/08 04:45:12;;;;;;;7.57;1.55;;;24.90;39.30;;;;;;5070071;28;20053;-68
2023/05/08 04:47:39;;;;;;;12.13;2.00;;;24.80;40.00;;;;;;5070940;28;20063;-69
2023/05/08 04:50:06;;;;;;;13.25;2.13;;;24.80;40.50;;;;;;5071976;28;20070;-69
2023/05/08 04:52:32;;;;;;;9.25;1.75;;;24.70;41.00;;;;;;5070642;28;20543;-67
2023/05/08 04:54:58;;;;;;;12.20;2.10;;;24.60;40.80;;;;;;5071826;28;20077;-68
2023/05/08 04:57:25;;;;;;;10.73;1.60;;;24.50;41.10;;;;;;5067235;28;20086;-67
2023/05/08 04:59:51;;;;;;;12.02;1.80;;;24.40;41.40;;;;;;5071289;28;20063;-68
2023/05/08 05:02:18;;;;;;;6.85;1.35;;;24.30;41.60;;;;;;5069807;28;20731;-66
2023/05/08 05:04:44;;;;;;;9.27;1.52;;;24.20;41.10;;;;;;5070156;28;20550;-67
2023/05/08 05:07:11;;;;;;;3.75;1.60;;;24.20;40.90;;;;;;5067128;28;20072;-68
2023/05/08 05:09:38;;;;;;;4.28;1.50;;;24.20;40.60;;;;;;5071329;28;20068;-67
2023/05/08 05:12:07;;;;;;;2.25;1.30;;;24.20;40.70;;;;;;5065638;28;20085;-66
2023/05/08 05:14:33;;;;;;;4.80;1.63;;;24.10;40.60;;;;;;5070573;28;20068;-67
2023/05/08 05:17:00;;;;;;;6.32;1.60;;;24.10;40.20;;;;;;5065150;28;20109;-66
2023/05/08 05:19:26;;;;;;;3.72;1.20;;;24.10;40.60;;;;;;5061091;28;20099;-70
2023/05/08 05:21:53;;;;;;;8.48;1.60;;;24.00;40.50;;;;;;5063274;28;20121;-68
2023/05/08 05:24:19;;;;;;;3.45;1.42;;;24.10;41.10;;;;;;5062821;28;20063;-62
2023/05/08 05:26:45;;;;;;;12.82;2.10;;;24.00;41.60;;;;;;5066969;28;20075;-64
2023/05/08 05:29:12;;;;;;;10.73;1.38;;;23.90;41.90;;;;;;5068420;28;20113;-58
2023/05/08 05:31:38;;;;;;;6.22;1.50;;;23.90;42.30;;;;;;5067405;28;20066;-66
2023/05/08 05:34:04;;;;;;;3.90;1.30;;;23.80;42.40;;;;;;5063781;28;20100;-66
2023/05/08 05:36:31;;;;;;;4.28;1.48;;;23.80;41.90;;;;;;5061355;28;20548;-67
2023/05/08 05:38:57;;;;;;;5.10;1.35;;;23.70;42.00;;;;;;5064156;28;20559;-66
2023/05/08 05:41:24;;;;;;;6.70;1.45;;;23.80;41.80;;;;;;5065496;28;20076;-65
2023/05/08 05:43:51;;;;;;;8.07;1.40;;;23.70;41.90;;;;;;5060207;28;20624;-68
2023/05/08 05:46:17;;;;;;;2.33;1.35;;;23.80;42.10;;;;;;5063263;28;20095;-67
2023/05/08 05:48:43;;;;;;;7.18;1.65;;;23.80;42.40;;;;;;5059831;28;20076;-68
2023/05/08 05:51:10;;;;;;;4.50;1.52;;;23.70;42.60;;;;;;5060180;28;20131;-67
2023/05/08 05:53:37;;;;;;;4.75;1.15;;;23.70;42.80;;;;;;5066061;28;20060;-66
2023/05/08 05:56:03;;;;;;;11.00;1.50;;;23.70;42.70;;;;;;5057532;28;20560;-66
2023/05/08 05:58:30;;;;;;;5.55;1.27;;;23.70;42.80;;;;;;5070055;28;20063;-67
2023/05/08 06:00:59;;;;;;;3.75;1.20;;;23.60;43.00;;;;;;5064022;28;20064;-70
2023/05/08 06:03:26;;;;;;;5.57;1.30;;;23.60;42.50;;;;;;5067251;28;20488;-63
2023/05/08 06:05:53;;;;;;;4.10;1.33;;;23.50;42.70;;;;;;5060117;28;20113;-64
2023/05/08 06:08:19;;;;;;;4.07;1.70;;;23.50;42.80;;;;;;5063506;28;20095;-65
2023/05/08 06:10:46;;;;;;;6.35;1.30;;;23.40;42.60;;;;;;5065740;28;20094;-66
2023/05/08 06:13:12;;;;;;;58.78;4.43;;;23.50;42.70;;;;;;5064489;28;20091;-64
2023/05/08 06:15:38;;;;;;;6.45;1.60;;;23.60;42.70;;;;;;5057886;28;20064;-64
2023/05/08 06:18:05;;;;;;;11.32;1.73;;;23.60;42.40;;;;;;5059877;28;20806;-64
2023/05/08 06:20:31;;;;;;;9.88;1.40;;;23.60;42.80;;;;;;5063799;28;20538;-66
2023/05/08 06:22:58;;;;;;;4.95;1.60;;;23.70;43.00;;;;;;5066727;28;20710;-65
2023/05/08 06:25:24;;;;;;;6.85;1.52;;;23.80;42.90;;;;;;5056772;28;20058;-65
2023/05/08 06:27:50;;;;;;;8.15;1.90;;;23.60;43.30;;;;;;5063978;28;20082;-66
2023/05/08 06:30:17;;;;;;;10.93;1.73;;;23.30;44.80;;;;;;5060982;28;20526;-66
2023/05/08 06:32:43;;;;;;;8.10;1.55;;;23.20;45.70;;;;;;5060100;28;20116;-66
2023/05/08 06:35:10;;;;;;;9.73;1.77;;;23.00;46.50;;;;;;5060206;28;20073;-57
2023/05/08 06:37:37;;;;;;;6.50;1.65;;;22.90;46.80;;;;;;5065746;28;20070;-67
2023/05/08 06:40:04;;;;;;;5.90;1.65;;;22.80;46.90;;;;;;5060805;28;20077;-66
2023/05/08 06:42:31;;;;;;;7.15;1.92;;;22.90;46.80;;;;;;5063772;28;20071;-67
2023/05/08 06:44:57;;;;;;;3.60;1.38;;;23.00;46.40;;;;;;5051667;28;20065;-69
2023/05/08 06:47:23;;;;;;;8.68;2.00;;;23.00;46.30;;;;;;5062794;28;20065;-66
2023/05/08 06:49:50;;;;;;;9.65;2.00;;;22.90;46.80;;;;;;5062427;28;20067;-67
2023/05/08 06:52:16;;;;;;;8.05;1.67;;;22.80;47.30;;;;;;5062289;28;20439;-65
2023/05/08 06:54:43;;;;;;;9.25;2.00;;;22.80;47.60;;;;;;5064693;28;20068;-65
2023/05/08 06:57:10;;;;;;;7.35;1.50;;;22.70;47.70;;;;;;5062870;28;20095;-66
2023/05/08 06:59:36;;;;;;;10.27;1.73;;;22.60;48.10;;;;;;5064615;28;20062;-66
2023/05/08 07:02:02;;;;;;;7.38;1.80;;;22.60;48.00;;;;;;5065608;28;20065;-66
2023/05/08 07:04:29;;;;;;;148.02;8.10;;;22.60;48.10;;;;;;5054589;28;20519;-67
2023/05/08 07:06:55;;;;;;;73.68;5.00;;;22.60;48.40;;;;;;5061923;28;20065;-66
2023/05/08 07:09:22;;;;;;;14.05;1.63;;;22.50;48.00;;;;;;5051416;28;20073;-68
2023/05/08 07:11:48;;;;;;;9.60;1.60;;;22.50;47.60;;;;;;5064625;28;21901;-65
2023/05/08 07:14:14;;;;;;;7.38;1.58;;;22.50;47.40;;;;;;5062437;28;20072;-65
2023/05/08 07:16:41;;;;;;;5.65;1.40;;;22.50;47.50;;;;;;5060061;28;20081;-67
2023/05/08 07:19:07;;;;;;;7.22;1.40;;;22.50;47.40;;;;;;5061559;28;20073;-66
2023/05/08 07:21:34;;;;;;;6.25;1.65;;;22.40;47.50;;;;;;5065098;28;20152;-64
2023/05/08 07:24:00;;;;;;;4.75;1.85;;;22.40;47.60;;;;;;5062571;28;20093;-66
2023/05/08 07:26:27;;;;;;;9.05;1.95;;;22.40;47.70;;;;;;5061359;28;20077;-66
2023/05/08 07:28:53;;;;;;;4.38;1.60;;;22.30;48.00;;;;;;5059387;28;20072;-66
2023/05/08 07:31:20;;;;;;;8.65;1.63;;;22.30;48.30;;;;;;5062706;28;20071;-67
2023/05/08 07:33:47;;;;;;;9.52;1.90;;;22.20;48.60;;;;;;5062661;28;20102;-64
2023/05/08 07:36:13;;;;;;;7.28;2.28;;;22.20;48.40;;;;;;5061765;28;20154;-65
2023/05/08 07:38:40;;;;;;;6.47;1.95;;;22.00;48.90;;;;;;5047436;28;20612;-65
2023/05/08 07:41:07;;;;;;;8.27;1.90;;;21.90;48.80;;;;;;5063244;28;20418;-66
2023/05/08 07:43:33;;;;;;;5.38;1.63;;;22.00;48.70;;;;;;5038920;28;20176;-66
2023/05/08 07:45:59;;;;;;;19.25;10.73;;;21.80;49.30;;;;;;5064044;28;20093;-66
2023/05/08 07:48:26;;;;;;;30.90;12.40;;;21.80;48.90;;;;;;5065508;28;20500;-67
2023/05/08 07:50:52;;;;;;;6.18;1.52;;;21.80;48.80;;;;;;5065977;28;20073;-66
2023/05/08 07:53:18;;;;;;;3.97;1.30;;;21.80;48.70;;;;;;5065272;28;20551;-64
2023/05/08 07:55:45;;;;;;;8.63;2.22;;;21.90;49.20;;;;;;5064948;28;20095;-65
2023/05/08 07:58:11;;;;;;;8.60;2.47;;;21.90;48.70;;;;;;5064255;28;20552;-66
2023/05/08 08:00:39;;;;;;;6.85;1.65;;;21.90;48.80;;;;;;5065931;28;20070;-66
2023/05/08 08:03:06;;;;;;;7.10;1.52;;;21.80;49.50;;;;;;5042472;28;20431;-66
2023/05/08 08:05:32;;;;;;;5.00;1.30;;;21.80;48.60;;;;;;5060830;28;20063;-65
2023/05/08 08:07:58;;;;;;;8.77;1.33;;;21.70;48.40;;;;;;5062025;28;20091;-66
2023/05/08 08:10:26;;;;;;;10.98;1.80;;;21.70;48.70;;;;;;5067632;28;20163;-65
2023/05/08 08:12:52;;;;;;;5.22;1.50;;;21.70;48.40;;;;;;5071958;28;20163;-66
2023/05/08 08:15:18;;;;;;;5.72;1.25;;;21.70;48.40;;;;;;5065983;28;20072;-65
2023/05/08 08:17:45;;;;;;;5.32;1.50;;;21.70;48.30;;;;;;5071853;28;20546;-67
2023/05/08 08:20:11;;;;;;;8.95;1.60;;;21.70;48.30;;;;;;5066134;28;20140;-64
2023/05/08 08:22:38;;;;;;;6.80;1.60;;;21.60;48.60;;;;;;5066137;28;20105;-66
2023/05/08 08:25:04;;;;;;;9.85;1.58;;;21.60;48.50;;;;;;5050064;28;20518;-66
2023/05/08 08:27:31;;;;;;;3.55;1.35;;;21.50;48.60;;;;;;5063825;28;20069;-67
2023/05/08 08:29:57;;;;;;;3.83;1.20;;;21.50;49.00;;;;;;5067078;28;20532;-66
2023/05/08 08:32:24;;;;;;;10.60;1.52;;;21.50;49.00;;;;;;5067063;28;20155;-65
2023/05/08 08:34:50;;;;;;;6.75;1.27;;;21.50;49.00;;;;;;5065015;28;20122;-64
2023/05/08 08:37:16;;;;;;;3.33;1.42;;;21.40;49.10;;;;;;5066847;28;20081;-65
2023/05/08 08:39:43;;;;;;;6.43;1.45;;;21.30;49.50;;;;;;5060755;28;20065;-65
2023/05/08 08:42:11;;;;;;;5.88;1.73;;;21.40;49.10;;;;;;5070922;28;20070;-64
2023/05/08 08:44:37;;;;;;;4.03;1.50;;;21.30;48.80;;;;;;5061917;28;20475;-63
2023/05/08 08:47:05;;;;;;;3.00;1.20;;;21.20;48.80;;;;;;5069414;28;20068;-66
2023/05/08 08:49:35;;;;;;;2.88;1.48;;;21.20;49.10;;;;;;5069469;28;20060;-65
2023/05/08 08:52:35;;;;;;;3.58;1.60;;;21.20;49.20;;;;;;5065730;28;20080;-65
2023/05/08 08:55:06;;;;;;;3.70;1.50;;;21.10;49.70;;;;;;5052351;28;20074;-65
2023/05/08 08:57:35;;;;;;;5.15;1.33;;;21.10;49.60;;;;;;5063290;28;20552;-65
2023/05/08 09:00:06;;;;;;;3.90;1.58;;;21.10;49.10;;;;;;5068427;28;20113;-66
2023/05/08 09:02:34;;;;;;;6.60;1.40;;;21.00;49.00;;;;;;5068269;28;20062;-66
2023/05/08 09:05:02;;;;;;;5.60;1.20;;;21.00;49.00;;;;;;5064771;28;20137;-65
2023/05/08 09:07:29;;;;;;;4.63;1.40;;;21.00;48.50;;;;;;5063617;28;20486;-65
2023/05/08 09:09:56;;;;;;;5.43;1.15;;;20.90;48.50;;;;;;5070659;28;20079;-66
2023/05/08 09:12:22;;;;;;;6.40;1.20;;;20.90;48.70;;;;;;5063944;28;20156;-64
2023/05/08 09:14:50;;;;;;;8.82;1.50;;;20.90;49.00;;;;;;5063370;28;20057;-64
2023/05/08 09:17:16;;;;;;;4.22;1.10;;;20.80;49.40;;;;;;5064576;28;20082;-65
2023/05/08 09:19:43;;;;;;;3.92;1.10;;;20.60;49.30;;;;;;5068762;28;20068;-63
2023/05/08 09:22:10;;;;;;;5.25;1.00;;;20.60;49.70;;;;;;5068309;28;20069;-65
2023/05/08 09:24:59;;;;;;;3.80;1.20;;;20.50;49.70;;;;;;5069907;28;20108;-65
2023/05/08 09:27:27;;;;;;;2.67;1.25;;;20.40;49.50;;;;;;5063549;28;20093;-66
2023/05/08 09:30:01;;;;;;;3.17;1.10;;;20.50;49.80;;;;;;5067006;28;20456;-64
2023/05/08 09:32:29;;;;;;;4.82;1.40;;;20.50;48.80;;;;;;5063754;28;20525;-64
2023/05/08 09:34:56;;;;;;;3.38;1.00;;;20.70;48.80;;;;;;5060078;28;20113;-64
2023/05/08 09:37:24;;;;;;;4.85;1.20;;;20.70;48.70;;;;;;5071511;28;20084;-66
2023/05/08 09:39:50;;;;;;;4.43;1.23;;;20.70;48.80;;;;;;5067060;28;20060;-65
2023/05/08 09:42:17;;;;;;;1.42;1.05;;;20.70;48.80;;;;;;5062090;28;20127;-64
2023/05/08 09:44:51;;;;;;;2.80;1.17;;;20.70;48.40;;;;;;5060942;28;20066;-63
2023/05/08 09:47:23;;;;;;;6.28;1.42;;;20.60;48.80;;;;;;5068843;28;20068;-63
2023/05/08 09:50:05;;;;;;;4.22;1.20;;;20.50;48.70;;;;;;5066282;28;20090;-64
2023/05/08 09:52:33;;;;;;;4.85;1.02;;;20.50;48.40;;;;;;5068500;28;20077;-63
2023/05/08 09:55:02;;;;;;;3.30;0.90;;;20.50;48.40;;;;;;5065870;28;20070;-66
2023/05/08 09:57:30;;;;;;;5.13;1.02;;;20.50;48.50;;;;;;5043473;28;20517;-67
2023/05/08 10:00:06;;;;;;;3.08;1.08;;;20.40;48.70;;;;;;5069923;28;20093;-64
2023/05/08 10:02:34;;;;;;;4.47;1.20;;;20.50;48.80;;;;;;5069487;28;20106;-65
2023/05/08 10:05:01;;;;;;;6.95;1.20;;;20.40;49.00;;;;;;5063853;28;20074;-63
2023/05/08 10:07:32;;;;;;;6.15;1.33;;;20.30;49.40;;;;;;5068829;28;20098;-64
2023/05/08 10:10:04;;;;;;;6.80;1.10;;;20.30;49.00;;;;;;5068937;28;20062;-64
2023/05/08 10:12:32;;;;;;;3.85;1.20;;;20.20;49.50;;;;;;5069741;28;20066;-66
2023/05/08 10:14:59;;;;;;;5.55;1.17;;;20.20;49.30;;;;;;5064621;28;20110;-64
2023/05/08 10:17:46;;;;;;;3.45;0.90;;;20.20;49.70;;;;;;5067079;28;20494;-65
2023/05/08 10:20:14;;;;;;;12.45;1.45;;;20.10;49.90;;;;;;5061190;28;20230;-66
2023/05/08 10:22:43;;;;;;;4.85;1.08;;;20.00;49.70;;;;;;5068611;28;20080;-65
2023/05/08 10:25:16;;;;;;;10.90;1.27;;;20.00;49.50;;;;;;5068168;28;20098;-64
2023/05/08 10:28:06;;;;;;;2.45;1.20;;;20.00;49.80;;;;;;5047674;28;20541;-65
2023/05/08 10:30:37;;;;;;;9.38;1.35;;;19.90;49.50;;;;;;5064254;28;20099;-64
2023/05/08 10:33:09;;;;;;;4.70;1.17;;;19.90;49.40;;;;;;5064323;28;20605;-64
2023/05/08 10:35:39;;;;;;;15.60;1.77;;;19.90;48.80;;;;;;5059882;28;20091;-64
2023/05/08 10:38:08;;;;;;;4.07;1.10;;;19.90;48.80;;;;;;5060735;28;20078;-63
2023/05/08 10:40:35;;;;;;;3.90;1.10;;;20.00;48.60;;;;;;5069160;28;20444;-64
2023/05/08 10:43:04;;;;;;;2.30;0.90;;;19.90;48.20;;;;;;5063637;28;20080;-64
2023/05/08 10:45:31;;;;;;;2.67;0.80;;;19.80;48.40;;;;;;5064307;28;20552;-63
2023/05/08 10:48:20;;;;;;;10.32;1.30;;;19.80;48.00;;;;;;5067332;28;20098;-63
2023/05/08 10:51:17;;;;;;;7.55;1.02;;;19.80;48.00;;;;;;5021355;28;20119;-64
2023/05/08 10:54:07;;;;;;;3.15;1.20;;;19.90;47.90;;;;;;5068816;28;20548;-64
2023/05/08 10:56:38;;;;;;;12.48;1.20;;;19.90;47.00;;;;;;5068397;28;20115;-63
2023/05/08 10:59:05;;;;;;;5.15;1.02;;;19.90;46.60;;;;;;5068769;28;20111;-63
2023/05/08 11:01:31;;;;;;;3.60;1.40;;;19.90;46.50;;;;;;5065791;28;20069;-64
2023/05/08 11:03:58;;;;;;;8.85;1.40;;;19.80;46.70;;;;;;5067659;28;20524;-65
2023/05/08 11:06:45;;;;;;;7.32;1.23;;;19.70;47.40;;;;;;5064342;28;20105;-65
2023/05/08 11:09:29;;;;;;;8.43;1.30;;;19.70;48.10;;;;;;5061924;28;20072;-64
2023/05/08 11:12:17;;;;;;;2.28;1.00;;;19.60;48.70;;;;;;5064900;28;20092;-65
2023/05/08 11:14:56;;;;;;;11.63;1.42;;;19.70;47.90;;;;;;5068268;28;20158;-65
2023/05/08 11:17:24;;;;;;;5.75;1.35;;;19.60;47.30;;;;;;5066901;28;20398;-64
2023/05/08 11:19:59;;;;;;;16.55;1.30;;;19.60;47.80;;;;;;5062337;28;20074;-64
2023/05/08 11:22:31;;;;;;;9.00;1.23;;;19.60;48.20;;;;;;5068629;28;20067;-65
2023/05/08 11:25:07;;;;;;;3.83;1.20;;;19.50;48.60;;;;;;5064964;28;20079;-64
2023/05/08 11:27:41;;;;;;;4.33;1.27;;;19.50;49.10;;;;;;5064518;28;20084;-65
2023/05/08 11:30:38;;;;;;;3.60;1.40;;;19.40;48.60;;;;;;5065577;28;20076;-65
2023/05/08 11:33:07;;;;;;;2.90;1.30;;;19.30;48.80;;;;;;5014341;28;20115;-65
2023/05/08 11:35:40;;;;;;;4.43;1.48;;;19.20;49.60;;;;;;5016864;28;20135;-63
2023/05/08 11:38:16;;;;;;;6.20;1.30;;;19.20;50.00;;;;;;5011789;28;20481;-64
2023/05/08 11:40:55;;;;;;;1.63;1.10;;;19.20;48.80;;;;;;5011481;28;20076;-64
2023/05/08 11:43:38;;;;;;;4.40;1.50;;;19.10;48.90;;;;;;5016837;28;20080;-64
2023/05/08 11:46:07;;;;;;;4.50;1.17;;;19.20;49.00;;;;;;5009413;28;20107;-64
2023/05/08 11:48:34;;;;;;;8.52;1.70;;;19.20;49.40;;;;;;5018531;28;20075;-65
2023/05/08 11:51:02;;;;;;;5.18;1.48;;;19.10;49.30;;;;;;5016347;28;20108;-66
2023/05/08 11:53:30;;;;;;;3.25;1.23;;;19.00;49.60;;;;;;5022675;28;20173;-64
2023/05/08 11:55:56;;;;;;;4.88;1.70;;;19.00;50.40;;;;;;5013466;28;20085;-65
2023/05/08 11:58:23;;;;;;;2.50;1.10;;;18.90;49.90;;;;;;5019265;28;20118;-65
2023/05/08 12:00:49;;;;;;;3.40;1.35;;;18.90;50.60;;;;;;5021120;28;20162;-64
2023/05/08 12:03:18;;;;;;;8.23;1.55;;;18.90;50.60;;;;;;5022288;28;20086;-64
2023/05/08 12:05:45;;;;;;;6.15;1.35;;;18.90;50.20;;;;;;5016410;28;20153;-64
2023/05/08 12:08:13;;;;;;;7.40;1.70;;;19.00;50.40;;;;;;5024581;28;20119;-64
2023/05/08 12:10:45;;;;;;;4.30;1.38;;;19.00;49.20;;;;;;5060800;28;20078;-64
2023/05/08 12:13:19;;;;;;;5.03;1.40;;;19.00;49.10;;;;;;5065563;28;20078;-63
2023/05/08 12:15:53;;;;;;;6.43;1.63;;;18.90;48.80;;;;;;5067560;28;20156;-65
2023/05/08 12:18:21;;;;;;;4.80;1.50;;;18.90;48.60;;;;;;5064716;28;20088;-65
2023/05/08 12:20:59;;;;;;;5.50;1.40;;;18.90;49.00;;;;;;5071800;28;20063;-65
2023/05/08 12:23:28;;;;;;;5.72;1.75;;;18.90;49.10;;;;;;5071925;28;20067;-66
2023/05/08 12:25:57;;;;;;;7.80;1.67;;;18.90;49.10;;;;;;5069173;28;20083;-65
2023/05/08 12:28:24;;;;;;;4.28;1.55;;;18.90;48.50;;;;;;5067156;28;20074;-64
2023/05/08 12:30:50;;;;;;;5.72;1.60;;;18.80;49.30;;;;;;5066706;28;20070;-65
2023/05/08 12:33:19;;;;;;;6.18;1.90;;;18.90;48.90;;;;;;5070250;28;20111;-64
2023/05/08 12:35:45;;;;;;;3.70;1.50;;;18.80;49.30;;;;;;5070659;28;20509;-65
2023/05/08 12:38:12;;;;;;;7.03;1.50;;;18.80;49.60;;;;;;5072367;28;20442;-63
2023/05/08 12:40:48;;;;;;;7.55;1.60;;;18.80;49.90;;;;;;5069535;28;20414;-64
2023/05/08 12:43:15;;;;;;;8.13;1.63;;;18.80;49.30;;;;;;5069178;28;20086;-63
2023/05/08 12:45:42;;;;;;;4.82;1.88;;;18.80;49.30;;;;;;5069813;28;20086;-65
2023/05/08 12:48:14;;;;;;;3.35;1.60;;;18.70;49.00;;;;;;5071738;28;20173;-64
2023/05/08 12:50:43;;;;;;;5.53;1.90;;;18.70;49.40;;;;;;5042662;28;20083;-64
2023/05/08 12:53:13;;;;;;;13.13;2.55;;;18.60;50.80;;;;;;5069133;28;20123;-64
2023/05/08 12:55:51;;;;;;;14.02;2.17;;;18.60;50.80;;;;;;5069295;28;20555;-65
2023/05/08 12:58:18;;;;;;;14.50;2.30;;;18.50;50.80;;;;;;5047946;28;20163;-65
2023/05/08 13:00:47;;;;;;;5.88;1.60;;;18.50;50.90;;;;;;5062224;28;20596;-63